createdAt,value
2017-10-25T00:00:17.295Z,1015.0
2017-10-25T00:10:31.484Z,1015.0
2017-10-25T00:20:42.772Z,1014.9
2017-10-25T00:30:57.267Z,1014.8
2017-10-25T00:41:11.606Z,1014.9
2017-10-25T00:51:56.032Z,1014.7
2017-10-25T01:02:10.471Z,1014.8
2017-10-25T01:12:24.280Z,1014.8
2017-10-25T01:22:35.553Z,1014.6
2017-10-25T01:32:49.909Z,1014.7
2017-10-25T01:43:34.972Z,1014.5
2017-10-25T01:54:20.614Z,1014.4
2017-10-25T02:04:34.559Z,1014.5
2017-10-25T02:14:48.998Z,1014.2
2017-10-25T02:25:02.958Z,1014.1
2017-10-25T02:35:17.296Z,1013.9
2017-10-25T02:45:31.295Z,1014.1
2017-10-25T02:55:45.598Z,1014.2
2017-10-25T03:05:59.994Z,1014.1
2017-10-25T03:16:14.257Z,1014.0
2017-10-25T03:26:28.349Z,1013.9
2017-10-25T03:36:42.496Z,1014.0
2017-10-25T03:46:56.505Z,1014.0
2017-10-25T03:57:10.529Z,1014.0
2017-10-25T04:07:24.123Z,1014.0
2017-10-25T04:17:38.651Z,1014.0
2017-10-25T04:27:50.650Z,1013.9
2017-10-25T04:38:35.308Z,1013.7
2017-10-25T04:48:49.581Z,1013.6
2017-10-25T04:59:04.015Z,1013.3
2017-10-25T05:09:50.635Z,1013.1
2017-10-25T05:20:36.713Z,1013.0
2017-10-25T05:30:50.882Z,1012.9
2017-10-25T05:41:04.889Z,1012.8
2017-10-25T05:51:18.902Z,1013.0
2017-10-25T06:02:03.920Z,1013.1
2017-10-25T06:12:14.987Z,1013.1
2017-10-25T06:22:29.155Z,1013.4
2017-10-25T06:32:40.720Z,1013.7
2017-10-25T06:42:54.794Z,1013.8
2017-10-25T06:53:09.418Z,1013.8
2017-10-25T07:03:23.362Z,1014.0
2017-10-25T07:14:08.060Z,1014.0
2017-10-25T07:24:22.048Z,1013.9
2017-10-25T07:34:36.559Z,1013.7
2017-10-25T07:44:50.602Z,1013.8
2017-10-25T07:55:04.890Z,1013.9
2017-10-25T08:05:19.399Z,1014.1
2017-10-25T08:15:31.588Z,1013.9
2017-10-25T08:25:43.671Z,1014.2
2017-10-25T08:36:28.472Z,1014.3
2017-10-25T08:46:42.433Z,1014.4
2017-10-25T08:56:53.824Z,1014.7
2017-10-25T09:07:05.066Z,1014.5
2017-10-25T09:17:19.771Z,1014.5
2017-10-25T09:28:15.796Z,1014.6
2017-10-25T09:38:29.485Z,1014.7
2017-10-25T09:48:41.807Z,1014.9
2017-10-25T09:58:55.949Z,1014.9
2017-10-25T10:09:09.828Z,1014.9
2017-10-25T10:19:24.768Z,1015.0
2017-10-25T10:29:38.328Z,1015.0
2017-10-25T10:39:52.729Z,1015.2
2017-10-25T10:50:04.919Z,1015.3
2017-10-25T11:00:19.465Z,1015.5
2017-10-25T11:11:03.701Z,1015.4
2017-10-25T11:21:18.034Z,1015.4
2017-10-25T11:31:29.552Z,1015.4
2017-10-25T11:41:43.780Z,1015.5
2017-10-25T11:51:57.701Z,1015.4
2017-10-25T12:02:43.072Z,1015.5
2017-10-25T12:13:01.683Z,1015.6
2017-10-25T12:23:17.285Z,1015.6
2017-10-25T12:33:34.560Z,1015.4
2017-10-25T12:43:48.772Z,1015.9
2017-10-25T12:54:02.911Z,1016.0
2017-10-25T13:05:30.125Z,1016.0
2017-10-25T13:16:14.955Z,1016.2
2017-10-25T13:26:27.355Z,1016.1
2017-10-25T13:36:41.706Z,1016.2
2017-10-25T13:46:55.774Z,1016.1
2017-10-25T13:57:41.339Z,1016.2
2017-10-25T14:07:55.384Z,1016.4
2017-10-25T14:18:09.741Z,1016.5
2017-10-25T14:28:23.952Z,1016.7
2017-10-25T14:38:37.856Z,1016.7
2017-10-25T14:48:52.077Z,1016.8
2017-10-25T14:59:06.205Z,1016.9
2017-10-25T15:09:20.999Z,1016.8
2017-10-25T15:19:34.982Z,1016.6
2017-10-25T15:29:48.942Z,1016.8
2017-10-25T15:40:03.190Z,1016.9
2017-10-25T15:50:17.274Z,1017.0
2017-10-25T16:00:30.828Z,1017.2
2017-10-25T16:10:44.694Z,1017.4
2017-10-25T16:21:32.447Z,1017.6
2017-10-25T16:31:49.073Z,1017.5
2017-10-25T16:42:02.931Z,1017.6
2017-10-25T16:52:17.602Z,1017.8
2017-10-25T17:02:31.304Z,1018.0
2017-10-25T17:12:45.407Z,1018.0
2017-10-25T17:23:00.165Z,1018.3
2017-10-25T17:33:14.624Z,1018.3
2017-10-25T17:43:31.301Z,1018.4
2017-10-25T17:53:45.954Z,1018.4
2017-10-25T18:04:00.544Z,1018.5
2017-10-25T18:14:48.124Z,1018.7
2017-10-25T18:25:00.230Z,1018.8
2017-10-25T18:35:15.477Z,1018.9
2017-10-25T18:45:30.811Z,1018.9
2017-10-25T18:56:22.532Z,1018.9
2017-10-25T19:06:38.187Z,1019.0
2017-10-25T19:16:57.581Z,1019.2
2017-10-25T19:27:51.037Z,1019.1
2017-10-25T19:38:04.508Z,1019.1
2017-10-25T19:48:49.534Z,1019.3
2017-10-25T19:59:05.257Z,1019.1
2017-10-25T20:09:28.532Z,1019.4
2017-10-25T20:19:43.030Z,1019.4
2017-10-25T20:31:06.264Z,1019.4
2017-10-25T20:41:53.290Z,1019.6
2017-10-25T20:52:11.130Z,1019.9
2017-10-25T21:02:33.025Z,1020.1
2017-10-25T21:13:28.634Z,1020.0
2017-10-25T21:24:20.890Z,1019.7
2017-10-25T21:35:05.425Z,1019.9
2017-10-25T21:45:49.498Z,1020.0
2017-10-25T21:56:37.072Z,1020.1
2017-10-25T22:07:24.686Z,1020.1
2017-10-25T22:17:38.295Z,1020.2
2017-10-25T22:27:52.350Z,1020.2
2017-10-25T22:38:03.601Z,1020.1
2017-10-25T22:48:14.917Z,1020.2
2017-10-25T22:58:28.517Z,1020.1
2017-10-25T23:09:13.092Z,1020.2
2017-10-25T23:19:27.346Z,1020.2
2017-10-25T23:30:16.136Z,1020.2
2017-10-25T23:40:30.296Z,1020.2
2017-10-25T23:51:14.239Z,1020.2
